Time,TemperatureF,DewpointF,PressureIn,WindDirection,WindDirectionDegrees,WindSpeedMPH,WindSpeedGustMPH,Humidity,HourlyPrecipIn,Conditions,Clouds,dailyrainin,SoftwareType,DateUTC
2013-08-22 00:00:00,63.3,62.4,30.03,SSE,161,0.0,0.0,97,0.00,,,0.00,VWS V14.01,2013-08-22 04:00:00,
2013-08-22 00:01:00,63.3,62.4,30.03,SSE,161,0.0,0.0,97,0.00,,,0.00,VWS V14.01,2013-08-22 04:01:00,
2013-08-22 00:02:00,63.3,62.4,30.03,SSE,161,0.0,0.0,97,0.00,,,0.00,VWS V14.01,2013-08-22 04:02:00,
2013-08-22 00:07:00,63.2,62.3,30.03,SSE,161,0.0,0.0,97,0.00,,,0.00,VWS V14.01,2013-08-22 04:07:00,
2013-08-22 00:12:00,63.1,62.2,30.03,SSE,161,0.0,0.0,97,0.00,,,0.00,VWS V14.01,2013-08-22 04:12:00,
2013-08-22 00:17:00,63.1,62.2,30.04,SSE,161,0.0,0.0,97,0.00,,,0.00,VWS V14.01,2013-08-22 04:17:00,
2013-08-22 00:22:00,63.1,62.2,30.04,SSE,161,0.0,0.0,97,0.00,,,0.00,VWS V14.01,2013-08-22 04:22:00,
2013-08-22 00:27:00,63.0,62.1,30.04,SSE,161,0.0,0.0,97,0.00,,,0.00,VWS V14.01,2013-08-22 04:27:00,
2013-08-22 00:33:00,62.9,62.0,30.04,SSE,161,0.0,0.0,97,0.00,,,0.00,VWS V14.01,2013-08-22 04:33:00,
2013-08-22 00:38:00,62.8,61.9,30.05,SSE,161,0.0,0.0,97,0.00,,,0.00,VWS V14.01,2013-08-22 04:38:00,
2013-08-22 00:43:00,62.8,61.9,30.05,SSE,161,0.0,0.0,97,0.00,,,0.00,VWS V14.01,2013-08-22 04:43:00,
2013-08-22 00:48:00,62.8,62.2,30.05,SSE,161,0.0,0.0,98,0.00,,,0.00,VWS V14.01,2013-08-22 04:48:00,
2013-08-22 00:53:00,62.7,62.1,30.05,SSE,161,0.0,1.0,98,0.00,,,0.00,VWS V14.01,2013-08-22 04:53:00,
2013-08-22 00:58:00,62.7,62.1,30.04,SSE,161,0.0,1.0,98,0.00,,,0.00,VWS V14.01,2013-08-22 04:58:00,
2013-08-22 01:03:00,62.7,62.1,30.05,SSE,161,0.0,0.0,98,0.00,,,0.00,VWS V14.01,2013-08-22 05:03:00,
2013-08-22 01:08:00,62.7,62.1,30.05,SSE,161,0.0,0.0,98,0.00,,,0.00,VWS V14.01,2013-08-22 05:08:00,
2013-08-22 01:14:00,62.6,62.0,30.04,SSE,161,0.0,0.0,98,0.00,,,0.00,VWS V14.01,2013-08-22 05:14:00,
2013-08-22 01:19:00,62.6,62.0,30.05,SSE,161,0.0,0.0,98,0.00,,,0.00,VWS V14.01,2013-08-22 05:19:00,
2013-08-22 01:24:00,62.6,62.0,30.05,SSE,161,0.0,0.0,98,0.00,,,0.00,VWS V14.01,2013-08-22 05:24:00,
2013-08-22 01:29:00,62.6,62.0,30.05,SSE,161,0.0,0.0,98,0.00,,,0.00,VWS V14.01,2013-08-22 05:29:00,
2013-08-22 01:34:00,62.6,62.0,30.05,SSE,161,0.0,0.0,98,0.00,,,0.00,VWS V14.01,2013-08-22 05:34:00,
2013-08-22 01:39:00,62.5,61.9,30.05,SSE,161,0.0,0.0,98,0.00,,,0.00,VWS V14.01,2013-08-22 05:39:00,
2013-08-22 01:44:00,62.5,61.9,30.05,SSE,161,0.0,0.0,98,0.00,,,0.00,VWS V14.01,2013-08-22 05:44:00,
2013-08-22 01:49:00,62.4,61.8,30.05,SSE,161,0.0,0.0,98,0.00,,,0.00,VWS V14.01,2013-08-22 05:49:00,
2013-08-22 01:54:00,62.4,61.8,30.05,SSE,161,0.0,0.0,98,0.00,,,0.00,VWS V14.01,2013-08-22 05:54:00,
2013-08-22 02:00:00,62.3,61.7,30.05,SSE,161,0.0,0.0,98,0.00,,,0.00,VWS V14.01,2013-08-22 06:00:00,
2013-08-22 02:05:00,62.2,61.6,30.05,SSE,161,0.0,0.0,98,0.00,,,0.00,VWS V14.01,2013-08-22 06:05:00,
2013-08-22 02:10:00,62.0,61.4,30.05,SSE,161,0.0,0.0,98,0.00,,,0.00,VWS V14.01,2013-08-22 06:10:00,
2013-08-22 02:15:00,62.0,61.4,30.05,SSE,161,0.0,0.0,98,0.00,,,0.00,VWS V14.01,2013-08-22 06:15:00,
2013-08-22 02:20:00,62.0,61.4,30.05,SSE,161,0.0,0.0,98,0.00,,,0.00,VWS V14.01,2013-08-22 06:20:00,
2013-08-22 02:25:00,61.9,61.3,30.05,SSE,161,0.0,0.0,98,0.00,,,0.00,VWS V14.01,2013-08-22 06:25:00,
2013-08-22 02:30:00,61.9,61.3,30.05,SSE,161,0.0,0.0,98,0.00,,,0.00,VWS V14.01,2013-08-22 06:30:00,
2013-08-22 02:35:00,61.9,61.3,30.05,SSE,161,0.0,0.0,98,0.00,,,0.00,VWS V14.01,2013-08-22 06:35:00,
2013-08-22 02:41:00,61.8,61.2,30.05,SSE,161,0.0,0.0,98,0.00,,,0.00,VWS V14.01,2013-08-22 06:41:00,
2013-08-22 02:46:00,61.7,61.1,30.05,SSE,161,0.0,0.0,98,0.00,,,0.00,VWS V14.01,2013-08-22 06:46:00,
2013-08-22 02:51:00,61.7,61.1,30.05,SSE,161,0.0,0.0,98,0.00,,,0.00,VWS V14.01,2013-08-22 06:51:00,
2013-08-22 02:56:00,61.6,61.0,30.06,SSE,161,0.0,0.0,98,0.00,,,0.00,VWS V14.01,2013-08-22 06:56:00,
2013-08-22 03:01:00,61.6,61.0,30.05,SSE,161,0.0,0.0,98,0.00,,,0.00,VWS V14.01,2013-08-22 07:01:00,
2013-08-22 03:06:00,61.5,60.9,30.05,SSE,161,0.0,0.0,98,0.00,,,0.00,VWS V14.01,2013-08-22 07:06:00,
2013-08-22 03:11:00,61.5,60.9,30.05,SSE,161,0.0,0.0,98,0.00,,,0.00,VWS V14.01,2013-08-22 07:11:00,
2013-08-22 03:16:00,61.5,60.9,30.04,SSE,161,0.0,0.0,98,0.00,,,0.00,VWS V14.01,2013-08-22 07:16:00,
2013-08-22 03:21:00,61.5,60.9,30.04,SSE,161,0.0,0.0,98,0.00,,,0.00,VWS V14.01,2013-08-22 07:21:00,
2013-08-22 03:26:00,61.5,60.9,30.04,SSE,161,0.0,0.0,98,0.00,,,0.00,VWS V14.01,2013-08-22 07:26:00,
2013-08-22 03:31:00,61.5,60.9,30.04,SSE,161,0.0,0.0,98,0.00,,,0.00,VWS V14.01,2013-08-22 07:31:00,
2013-08-22 03:37:00,61.5,60.9,30.04,SSE,161,0.0,0.0,98,0.00,,,0.00,VWS V14.01,2013-08-22 07:37:00,
2013-08-22 03:42:00,61.5,60.9,30.04,SSE,161,0.0,0.0,98,0.00,,,0.00,VWS V14.01,2013-08-22 07:42:00,
2013-08-22 03:47:00,61.4,60.8,30.04,SSE,161,0.0,0.0,98,0.00,,,0.00,VWS V14.01,2013-08-22 07:47:00,
2013-08-22 03:52:00,61.4,60.8,30.04,SSE,161,0.0,0.0,98,0.00,,,0.00,VWS V14.01,2013-08-22 07:52:00,
2013-08-22 03:57:00,61.3,60.7,30.04,SSE,161,0.0,0.0,98,0.00,,,0.00,VWS V14.01,2013-08-22 07:57:00,
2013-08-22 04:02:00,61.3,60.7,30.03,SSE,161,0.0,0.0,98,0.00,,,0.00,VWS V14.01,2013-08-22 08:02:00,
2013-08-22 04:07:00,61.3,60.7,30.03,SSE,161,0.0,0.0,98,0.00,,,0.00,VWS V14.01,2013-08-22 08:07:00,
2013-08-22 04:12:00,61.1,60.5,30.03,SSE,161,0.0,0.0,98,0.00,,,0.00,VWS V14.01,2013-08-22 08:12:00,
2013-08-22 04:17:00,61.1,60.5,30.03,SSE,161,0.0,0.0,98,0.00,,,0.00,VWS V14.01,2013-08-22 08:17:00,
2013-08-22 04:23:00,61.2,60.6,30.03,SSE,161,0.0,0.0,98,0.00,,,0.00,VWS V14.01,2013-08-22 08:23:00,
2013-08-22 04:28:00,61.2,60.6,30.03,SSE,161,0.0,0.0,98,0.00,,,0.00,VWS V14.01,2013-08-22 08:28:00,
2013-08-22 04:33:00,61.2,60.6,30.02,SSE,161,0.0,0.0,98,0.00,,,0.00,VWS V14.01,2013-08-22 08:33:00,
2013-08-22 04:38:00,61.1,60.5,30.02,SSE,161,0.0,0.0,98,0.00,,,0.00,VWS V14.01,2013-08-22 08:38:00,
2013-08-22 04:43:00,61.2,60.6,30.02,SSE,161,0.0,0.0,98,0.00,,,0.00,VWS V14.01,2013-08-22 08:43:00,
2013-08-22 04:48:00,61.2,60.6,30.02,SSE,161,0.0,0.0,98,0.00,,,0.00,VWS V14.01,2013-08-22 08:48:00,
2013-08-22 04:53:00,61.1,60.5,30.02,SSE,161,0.0,0.0,98,0.00,,,0.00,VWS V14.01,2013-08-22 08:53:00,
2013-08-22 04:58:00,61.1,60.5,30.01,SSE,161,0.0,0.0,98,0.00,,,0.00,VWS V14.01,2013-08-22 08:58:00,
2013-08-22 05:04:00,61.0,60.4,30.01,SSE,161,0.0,0.0,98,0.00,,,0.00,VWS V14.01,2013-08-22 09:04:00,
2013-08-22 05:09:00,60.9,60.3,30.01,SSE,161,0.0,0.0,98,0.00,,,0.00,VWS V14.01,2013-08-22 09:09:00,
2013-08-22 05:14:00,60.8,60.2,30.01,SSE,161,0.0,0.0,98,0.00,,,0.00,VWS V14.01,2013-08-22 09:14:00,
2013-08-22 05:19:00,60.9,60.3,30.00,SSE,161,0.0,0.0,98,0.00,,,0.00,VWS V14.01,2013-08-22 09:19:00,
2013-08-22 05:24:00,61.0,60.7,30.00,SSE,161,0.0,0.0,99,0.00,,,0.00,VWS V14.01,2013-08-22 09:24:00,
2013-08-22 05:29:00,61.0,60.7,30.00,SSE,161,0.0,0.0,99,0.00,,,0.00,VWS V14.01,2013-08-22 09:29:00,
2013-08-22 05:34:00,60.8,60.2,30.00,SSE,161,0.0,0.0,98,0.00,,,0.00,VWS V14.01,2013-08-22 09:34:00,
2013-08-22 05:39:00,60.7,60.1,30.01,SSE,161,0.0,0.0,98,0.00,,,0.00,VWS V14.01,2013-08-22 09:39:00,
2013-08-22 05:44:00,60.7,60.1,30.01,SSE,161,0.0,0.0,98,0.00,,,0.00,VWS V14.01,2013-08-22 09:44:00,
2013-08-22 05:50:00,60.8,60.2,30.01,SSE,161,0.0,0.0,98,0.00,,,0.00,VWS V14.01,2013-08-22 09:50:00,
2013-08-22 05:55:00,60.8,60.2,30.01,SSE,161,0.0,0.0,98,0.00,,,0.00,VWS V14.01,2013-08-22 09:55:00,
2013-08-22 06:00:00,60.7,60.1,30.00,SSE,161,0.0,0.0,98,0.00,,,0.00,VWS V14.01,2013-08-22 10:00:00,
2013-08-22 06:05:00,60.7,60.1,30.00,SSE,161,0.0,0.0,98,0.00,,,0.00,VWS V14.01,2013-08-22 10:05:00,
2013-08-22 06:10:00,60.7,60.1,30.00,SSE,161,0.0,0.0,98,0.00,,,0.00,VWS V14.01,2013-08-22 10:10:00,
2013-08-22 06:15:00,60.7,60.1,30.00,SSE,161,0.0,0.0,98,0.00,,,0.00,VWS V14.01,2013-08-22 10:15:00,
2013-08-22 06:20:00,60.8,60.5,30.00,SSE,161,0.0,0.0,99,0.00,,,0.00,VWS V14.01,2013-08-22 10:20:00,
2013-08-22 06:25:00,60.9,60.6,30.00,SSE,161,0.0,0.0,99,0.00,,,0.00,VWS V14.01,2013-08-22 10:25:00,
2013-08-22 06:31:00,60.9,60.6,30.00,SSE,161,0.0,0.0,99,0.00,,,0.00,VWS V14.01,2013-08-22 10:31:00,
2013-08-22 06:36:00,61.1,60.8,30.00,SSE,161,0.0,0.0,99,0.00,,,0.00,VWS V14.01,2013-08-22 10:36:00,
2013-08-22 06:41:00,61.2,60.9,30.00,SSE,161,0.0,0.0,99,0.00,,,0.00,VWS V14.01,2013-08-22 10:41:00,
2013-08-22 06:46:00,61.4,61.1,30.00,SSE,161,0.0,0.0,99,0.00,,,0.00,VWS V14.01,2013-08-22 10:46:00,
2013-08-22 08:27:00,68.9,67.4,29.99,SSE,161,0.0,0.0,95,0.00,,,0.00,VWS V14.01,2013-08-22 12:27:00,
2013-08-22 08:32:00,69.7,68.2,29.99,SSE,161,0.0,0.0,95,0.00,,,0.00,VWS V14.01,2013-08-22 12:32:00,
2013-08-22 08:38:00,70.6,68.8,29.99,SSE,161,0.0,1.0,94,0.00,,,0.00,VWS V14.01,2013-08-22 12:38:00,
2013-08-22 08:43:00,71.3,69.2,29.99,SSE,161,0.0,1.0,93,0.00,,,0.00,VWS V14.01,2013-08-22 12:43:00,
2013-08-22 08:48:00,71.7,69.3,29.98,SSE,161,0.0,1.0,92,0.00,,,0.00,VWS V14.01,2013-08-22 12:48:00,
2013-08-22 08:53:00,71.8,68.7,29.98,SSE,161,0.0,1.0,90,0.00,,,0.00,VWS V14.01,2013-08-22 12:53:00,
2013-08-22 08:58:00,71.8,69.0,29.99,SSE,161,0.0,1.0,91,0.00,,,0.00,VWS V14.01,2013-08-22 12:58:00,
2013-08-22 09:01:00,71.8,69.0,29.99,SSE,161,0.0,0.0,91,0.00,,,0.00,VWS V14.01,2013-08-22 13:01:00,
2013-08-22 09:06:00,71.7,68.9,29.99,SSE,161,0.0,0.0,91,0.00,,,0.00,VWS V14.01,2013-08-22 13:06:00,
2013-08-22 09:11:00,71.6,68.8,29.99,SSE,161,0.0,0.0,91,0.00,,,0.00,VWS V14.01,2013-08-22 13:11:00,
2013-08-22 09:16:00,71.5,68.7,29.99,SSE,161,0.0,0.0,91,0.00,,,0.00,VWS V14.01,2013-08-22 13:16:00,
2013-08-22 09:21:00,71.4,69.0,30.00,SSE,161,0.0,0.0,92,0.00,,,0.00,VWS V14.01,2013-08-22 13:21:00,
2013-08-22 09:26:00,71.3,68.9,30.00,SSE,161,0.0,0.0,92,0.00,,,0.00,VWS V14.01,2013-08-22 13:26:00,
2013-08-22 09:32:00,71.2,68.8,30.00,SSE,161,0.0,0.0,92,0.00,,,0.00,VWS V14.01,2013-08-22 13:32:00,
2013-08-22 09:37:00,71.1,68.7,30.00,SSE,161,0.0,0.0,92,0.00,,,0.00,VWS V14.01,2013-08-22 13:37:00,
2013-08-22 09:42:00,70.9,68.8,30.01,SSE,161,0.0,0.0,93,0.00,,,0.00,VWS V14.01,2013-08-22 13:42:00,
2013-08-22 09:47:00,70.7,68.6,30.01,SSE,161,0.0,0.0,93,0.00,,,0.00,VWS V14.01,2013-08-22 13:47:00,
2013-08-22 09:52:00,70.5,68.1,30.01,SSE,161,0.0,0.0,92,0.00,,,0.00,VWS V14.01,2013-08-22 13:52:00,
2013-08-22 09:57:00,70.3,68.2,30.01,SSE,161,0.0,0.0,93,0.00,,,0.00,VWS V14.01,2013-08-22 13:57:00,
2013-08-22 10:02:00,70.1,68.0,30.01,SSE,161,0.0,0.0,93,0.00,,,0.00,VWS V14.01,2013-08-22 14:02:00,
2013-08-22 10:07:00,69.9,67.8,30.01,SSE,161,0.0,0.0,93,0.00,,,0.00,VWS V14.01,2013-08-22 14:07:00,
2013-08-22 10:13:00,69.9,68.1,30.00,SSE,161,0.0,0.0,94,0.00,,,0.00,VWS V14.01,2013-08-22 14:13:00,
2013-08-22 10:18:00,69.9,68.1,30.00,SSE,161,0.0,0.0,94,0.00,,,0.00,VWS V14.01,2013-08-22 14:18:00,
2013-08-22 10:23:00,69.8,68.0,30.00,SSE,161,0.0,0.0,94,0.00,,,0.00,VWS V14.01,2013-08-22 14:23:00,
2013-08-22 10:28:00,70.0,68.5,29.99,SSE,161,0.0,0.0,95,0.00,,,0.00,VWS V14.01,2013-08-22 14:28:00,
2013-08-22 10:33:00,70.2,68.7,29.99,SSE,161,0.0,0.0,95,0.00,,,0.00,VWS V14.01,2013-08-22 14:33:00,
2013-08-22 10:38:00,70.4,68.9,29.99,SSE,161,0.0,0.0,95,0.00,,,0.00,VWS V14.01,2013-08-22 14:38:00,
2013-08-22 10:43:00,70.8,69.3,29.99,SSE,161,0.0,0.0,95,0.00,,,0.00,VWS V14.01,2013-08-22 14:43:00,
2013-08-22 10:48:00,71.0,69.5,29.99,SSE,161,0.0,0.0,95,0.00,,,0.00,VWS V14.01,2013-08-22 14:48:00,
2013-08-22 10:53:00,71.4,69.6,29.99,SSE,161,0.0,0.0,94,0.00,,,0.00,VWS V14.01,2013-08-22 14:53:00,
2013-08-22 10:59:00,71.7,69.9,30.00,SSE,161,0.0,0.0,94,0.00,,,0.00,VWS V14.01,2013-08-22 14:59:00,
2013-08-22 11:04:00,72.0,70.2,30.00,SSE,161,0.0,0.0,94,0.00,,,0.00,VWS V14.01,2013-08-22 15:04:00,
2013-08-22 11:09:00,72.2,70.4,29.99,SSE,161,0.0,0.0,94,0.00,,,0.00,VWS V14.01,2013-08-22 15:09:00,
2013-08-22 11:14:00,72.4,70.6,29.99,SSE,161,0.0,0.0,94,0.00,,,0.00,VWS V14.01,2013-08-22 15:14:00,
2013-08-22 11:19:00,72.8,71.0,29.99,SSE,161,0.0,0.0,94,0.00,,,0.00,VWS V14.01,2013-08-22 15:19:00,
2013-08-22 11:24:00,73.0,70.9,29.99,SSE,161,1.0,1.0,93,0.00,,,0.00,VWS V14.01,2013-08-22 15:24:00,
2013-08-22 11:29:00,73.4,71.3,29.99,SSE,161,0.0,1.0,93,0.00,,,0.00,VWS V14.01,2013-08-22 15:29:00,
2013-08-22 11:34:00,73.8,71.3,29.99,West,274,0.0,2.0,92,0.00,,,0.00,VWS V14.01,2013-08-22 15:34:00,
2013-08-22 11:40:00,74.2,71.7,29.99,South,180,0.0,2.0,92,0.00,,,0.00,VWS V14.01,2013-08-22 15:40:00,
2013-08-22 11:45:00,74.5,71.7,29.99,South,182,0.0,2.0,91,0.00,,,0.00,VWS V14.01,2013-08-22 15:45:00,
2013-08-22 11:50:00,74.6,71.5,29.99,SSE,157,0.0,2.0,90,0.00,,,0.00,VWS V14.01,2013-08-22 15:50:00,
2013-08-22 11:55:00,74.5,71.7,29.99,SE,139,0.0,4.0,91,0.00,,,0.00,VWS V14.01,2013-08-22 15:55:00,
2013-08-22 12:00:00,74.5,71.7,29.99,SE,139,0.0,4.0,91,0.00,,,0.00,VWS V14.01,2013-08-22 16:00:00,
2013-08-22 12:05:00,74.4,71.9,29.99,SE,139,0.0,1.0,92,0.00,,,0.00,VWS V14.01,2013-08-22 16:05:00,
2013-08-22 12:10:00,74.3,71.8,29.99,SE,138,0.0,1.0,92,0.00,,,0.00,VWS V14.01,2013-08-22 16:10:00,
2013-08-22 12:15:00,74.2,71.7,29.98,SE,139,0.0,1.0,92,0.00,,,0.00,VWS V14.01,2013-08-22 16:15:00,
2013-08-22 12:20:00,74.2,71.7,29.98,SSW,198,0.0,1.0,92,0.00,,,0.00,VWS V14.01,2013-08-22 16:20:00,
2013-08-22 12:26:00,74.1,71.9,29.98,South,173,1.0,4.0,93,0.00,,,0.00,VWS V14.01,2013-08-22 16:26:00,
2013-08-22 12:31:00,74.1,71.6,29.98,SW,233,0.0,0.0,92,0.00,,,0.00,VWS V14.01,2013-08-22 16:31:00,
2013-08-22 12:36:00,74.1,71.3,29.98,East,97,0.0,2.0,91,0.00,,,0.00,VWS V14.01,2013-08-22 16:36:00,
2013-08-22 12:41:00,74.2,71.7,29.97,East,97,0.0,2.0,92,0.00,,,0.00,VWS V14.01,2013-08-22 16:41:00,
2013-08-22 12:46:00,74.4,72.2,29.97,East,97,0.0,2.0,93,0.00,,,0.00,VWS V14.01,2013-08-22 16:46:00,
2013-08-22 12:51:00,74.5,72.0,29.97,SSE,161,0.0,2.0,92,0.00,,,0.00,VWS V14.01,2013-08-22 16:51:00,
2013-08-22 12:56:00,74.6,71.8,29.97,East,96,0.0,2.0,91,0.00,,,0.00,VWS V14.01,2013-08-22 16:56:00,
2013-08-22 13:01:00,74.8,72.0,29.97,ESE,113,0.0,0.0,91,0.00,,,0.00,VWS V14.01,2013-08-22 17:01:00,
2013-08-22 13:07:00,75.0,72.2,29.97,ESE,113,0.0,1.0,91,0.00,,,0.00,VWS V14.01,2013-08-22 17:07:00,
2013-08-22 13:12:00,75.3,72.5,29.97,ESE,113,0.0,1.0,91,0.00,,,0.00,VWS V14.01,2013-08-22 17:12:00,
2013-08-22 13:17:00,75.7,72.9,29.97,ESE,113,0.0,1.0,91,0.00,,,0.00,VWS V14.01,2013-08-22 17:17:00,
2013-08-22 13:22:00,75.8,72.3,29.96,ESE,112,0.0,2.0,89,0.00,,,0.00,VWS V14.01,2013-08-22 17:22:00,
2013-08-22 13:27:00,75.9,72.8,29.96,ESE,109,0.0,2.0,90,0.00,,,0.00,VWS V14.01,2013-08-22 17:27:00,
2013-08-22 13:32:00,76.1,73.0,29.96,ESE,109,0.0,0.0,90,0.00,,,0.00,VWS V14.01,2013-08-22 17:32:00,
2013-08-22 13:37:00,76.4,72.6,29.95,WSW,251,0.0,4.0,88,0.00,,,0.00,VWS V14.01,2013-08-22 17:37:00,
2013-08-22 13:42:00,76.6,73.4,29.95,ESE,107,0.0,4.0,90,0.00,,,0.00,VWS V14.01,2013-08-22 17:42:00,
2013-08-22 13:47:00,77.0,73.2,29.94,East,94,0.0,4.0,88,0.00,,,0.00,VWS V14.01,2013-08-22 17:47:00,
2013-08-22 13:53:00,77.8,74.0,29.94,ENE,59,0.0,4.0,88,0.00,,,0.00,VWS V14.01,2013-08-22 17:53:00,
2013-08-22 13:58:00,78.2,73.3,29.94,East,88,0.0,4.0,85,0.00,,,0.00,VWS V14.01,2013-08-22 17:58:00,
2013-08-22 14:03:00,78.2,72.3,29.94,SE,124,0.0,1.0,82,0.00,,,0.00,VWS V14.01,2013-08-22 18:03:00,
2013-08-22 14:08:00,78.4,73.2,29.94,SE,144,0.0,1.0,84,0.00,,,0.00,VWS V14.01,2013-08-22 18:08:00,
2013-08-22 14:13:00,78.9,74.4,29.94,SE,146,0.0,1.0,86,0.00,,,0.00,VWS V14.01,2013-08-22 18:13:00,
2013-08-22 14:18:00,79.9,74.6,29.93,SE,145,0.0,1.0,84,0.00,,,0.00,VWS V14.01,2013-08-22 18:18:00,
2013-08-22 14:23:00,80.6,73.9,29.93,East,88,0.0,4.0,80,0.00,,,0.00,VWS V14.01,2013-08-22 18:23:00,
2013-08-22 14:28:00,81.0,73.5,29.93,NE,51,0.0,4.0,78,0.00,,,0.00,VWS V14.01,2013-08-22 18:28:00,
2013-08-22 14:34:00,81.6,73.3,29.92,ENE,74,0.0,4.0,76,0.00,,,0.00,VWS V14.01,2013-08-22 18:34:00,
2013-08-22 14:39:00,81.8,73.1,29.91,ENE,74,0.0,4.0,75,0.00,,,0.00,VWS V14.01,2013-08-22 18:39:00,
2013-08-22 14:44:00,81.4,73.1,29.91,West,261,0.0,4.0,76,0.00,,,0.00,VWS V14.01,2013-08-22 18:44:00,
2013-08-22 14:49:00,81.0,73.9,29.90,East,90,0.0,4.0,79,0.00,,,0.00,VWS V14.01,2013-08-22 18:49:00,
2013-08-22 14:54:00,80.9,73.8,29.90,ENE,77,0.0,4.0,79,0.00,,,0.00,VWS V14.01,2013-08-22 18:54:00,
2013-08-22 14:59:00,80.9,73.4,29.90,East,81,0.0,4.0,78,0.00,,,0.00,VWS V14.01,2013-08-22 18:59:00,
2013-08-22 15:04:00,80.8,73.7,29.90,ENE,66,0.0,1.0,79,0.00,,,0.00,VWS V14.01,2013-08-22 19:04:00,
2013-08-22 15:09:00,80.6,73.5,29.90,ENE,66,0.0,1.0,79,0.00,,,0.00,VWS V14.01,2013-08-22 19:09:00,
2013-08-22 15:14:00,80.3,73.2,29.90,ENE,65,0.0,1.0,79,0.00,,,0.00,VWS V14.01,2013-08-22 19:14:00,
2013-08-22 15:19:00,80.3,73.9,29.90,SW,214,0.0,2.0,81,0.00,,,0.00,VWS V14.01,2013-08-22 19:19:00,
2013-08-22 15:25:00,80.5,73.4,29.90,SSE,147,0.0,2.0,79,0.00,,,0.00,VWS V14.01,2013-08-22 19:25:00,
2013-08-22 15:30:00,80.9,73.4,29.90,SW,233,2.0,5.0,78,0.00,,,0.00,VWS V14.01,2013-08-22 19:30:00,
2013-08-22 15:35:00,81.2,72.5,29.89,SE,138,1.0,5.0,75,0.00,,,0.00,VWS V14.01,2013-08-22 19:35:00,
2013-08-22 15:40:00,81.1,72.0,29.90,SE,137,1.0,5.0,74,0.00,,,0.00,VWS V14.01,2013-08-22 19:40:00,
2013-08-22 15:45:00,80.9,72.2,29.89,East,86,1.0,5.0,75,0.00,,,0.00,VWS V14.01,2013-08-22 19:45:00,
2013-08-22 15:50:00,80.6,71.9,29.89,South,188,0.0,5.0,75,0.00,,,0.00,VWS V14.01,2013-08-22 19:50:00,
2013-08-22 15:55:00,80.2,71.9,29.89,ESE,123,0.0,5.0,76,0.00,,,0.00,VWS V14.01,2013-08-22 19:55:00,
2013-08-22 16:00:00,80.0,71.8,29.89,East,88,0.0,6.0,76,0.00,,,0.00,VWS V14.01,2013-08-22 20:00:00,
2013-08-22 16:06:00,79.7,71.5,29.89,SE,138,0.0,3.0,76,0.00,,,0.00,VWS V14.01,2013-08-22 20:06:00,
2013-08-22 16:11:00,79.4,71.2,29.89,East,84,0.0,3.0,76,0.00,,,0.00,VWS V14.01,2013-08-22 20:11:00,
2013-08-22 16:16:00,79.2,71.4,29.88,East,101,0.0,5.0,77,0.00,,,0.00,VWS V14.01,2013-08-22 20:16:00,
2013-08-22 16:21:00,79.0,71.2,29.89,SSE,159,0.0,5.0,77,0.00,,,0.00,VWS V14.01,2013-08-22 20:21:00,
2013-08-22 16:26:00,78.9,71.8,29.89,SE,140,0.0,5.0,79,0.00,,,0.00,VWS V14.01,2013-08-22 20:26:00,
2013-08-22 16:31:00,78.7,71.3,29.88,SW,223,0.0,1.0,78,0.00,,,0.00,VWS V14.01,2013-08-22 20:31:00,
2013-08-22 16:36:00,78.4,71.3,29.88,East,87,1.0,3.0,79,0.00,,,0.00,VWS V14.01,2013-08-22 20:36:00,
2013-08-22 16:41:00,78.3,71.6,29.88,South,181,0.0,3.0,80,0.00,,,0.00,VWS V14.01,2013-08-22 20:41:00,
2013-08-22 16:46:00,78.3,72.4,29.88,SSW,213,0.0,3.0,82,0.00,,,0.00,VWS V14.01,2013-08-22 20:46:00,
2013-08-22 16:52:00,78.1,71.4,29.88,SSE,161,0.0,3.0,80,0.00,,,0.00,VWS V14.01,2013-08-22 20:52:00,
2013-08-22 16:57:00,77.9,71.6,29.87,West,265,2.0,4.0,81,0.00,,,0.00,VWS V14.01,2013-08-22 20:57:00,
2013-08-22 17:02:00,77.8,71.9,29.87,East,82,0.0,0.0,82,0.00,,,0.00,VWS V14.01,2013-08-22 21:02:00,
2013-08-22 17:07:00,77.5,71.6,29.87,East,101,0.0,1.0,82,0.00,,,0.00,VWS V14.01,2013-08-22 21:07:00,
2013-08-22 17:12:00,77.2,70.9,29.87,SE,133,0.0,2.0,81,0.00,,,0.00,VWS V14.01,2013-08-22 21:12:00,
2013-08-22 17:17:00,77.1,71.2,29.86,SSE,155,0.0,4.0,82,0.00,,,0.00,VWS V14.01,2013-08-22 21:17:00,
2013-08-22 17:22:00,76.9,71.3,29.86,SW,219,0.0,4.0,83,0.00,,,0.00,VWS V14.01,2013-08-22 21:22:00,
2013-08-22 17:27:00,76.7,70.8,29.86,SSE,155,0.0,4.0,82,0.00,,,0.00,VWS V14.01,2013-08-22 21:27:00,
2013-08-22 17:33:00,76.5,71.0,29.86,SSE,155,0.0,0.0,83,0.00,,,0.00,VWS V14.01,2013-08-22 21:33:00,
2013-08-22 17:38:00,76.4,71.2,29.86,SSE,155,0.0,0.0,84,0.00,,,0.00,VWS V14.01,2013-08-22 21:38:00,
2013-08-22 17:43:00,76.2,71.0,29.86,SSE,155,0.0,1.0,84,0.00,,,0.00,VWS V14.01,2013-08-22 21:43:00,
2013-08-22 17:48:00,76.1,70.9,29.86,ENE,78,0.0,1.0,84,0.00,,,0.00,VWS V14.01,2013-08-22 21:48:00,
2013-08-22 17:53:00,75.9,70.4,29.86,SE,132,1.0,1.0,83,0.00,,,0.00,VWS V14.01,2013-08-22 21:53:00,
2013-08-22 17:58:00,75.7,70.5,29.86,SE,132,0.0,1.0,84,0.00,,,0.00,VWS V14.01,2013-08-22 21:58:00,
2013-08-22 18:03:00,75.5,70.0,29.86,SSE,155,0.0,1.0,83,0.00,,,0.00,VWS V14.01,2013-08-22 22:03:00,
2013-08-22 18:08:00,75.3,70.1,29.86,SSE,155,0.0,1.0,84,0.00,,,0.00,VWS V14.01,2013-08-22 22:08:00,
2013-08-22 18:14:00,75.3,70.5,29.86,SSE,155,0.0,1.0,85,0.00,,,0.00,VWS V14.01,2013-08-22 22:14:00,
2013-08-22 18:19:00,75.2,70.4,29.86,SSE,148,0.0,1.0,85,0.00,,,0.00,VWS V14.01,2013-08-22 22:19:00,
2013-08-22 18:24:00,75.2,70.7,29.86,SSE,148,0.0,1.0,86,0.00,,,0.00,VWS V14.01,2013-08-22 22:24:00,
2013-08-22 18:29:00,75.1,70.6,29.86,SSE,148,0.0,1.0,86,0.00,,,0.00,VWS V14.01,2013-08-22 22:29:00,
2013-08-22 18:34:00,75.0,70.2,29.86,SSW,200,0.0,1.0,85,0.00,,,0.00,VWS V14.01,2013-08-22 22:34:00,
2013-08-22 18:39:00,74.9,70.4,29.86,SSW,198,0.0,1.0,86,0.00,,,0.00,VWS V14.01,2013-08-22 22:39:00,
2013-08-22 18:44:00,74.7,70.6,29.87,SSW,198,0.0,1.0,87,0.00,,,0.00,VWS V14.01,2013-08-22 22:44:00,
2013-08-22 18:49:00,74.5,70.4,29.87,SSW,198,0.0,1.0,87,0.00,,,0.00,VWS V14.01,2013-08-22 22:49:00,
2013-08-22 18:54:00,74.3,70.2,29.86,SE,141,0.0,2.0,87,0.00,,,0.00,VWS V14.01,2013-08-22 22:54:00,
2013-08-22 19:00:00,74.2,70.4,29.86,SE,141,0.0,2.0,88,0.00,,,0.00,VWS V14.01,2013-08-22 23:00:00,
2013-08-22 19:05:00,74.0,70.6,29.86,SE,141,0.0,0.0,89,0.00,,,0.00,VWS V14.01,2013-08-22 23:05:00,
2013-08-22 19:10:00,73.7,69.9,29.86,SE,141,0.0,0.0,88,0.00,,,0.00,VWS V14.01,2013-08-22 23:10:00,
2013-08-22 19:15:00,73.5,70.1,29.86,SE,141,0.0,0.0,89,0.00,,,0.00,VWS V14.01,2013-08-22 23:15:00,
2013-08-22 19:20:00,73.3,69.9,29.87,SE,141,0.0,0.0,89,0.00,,,0.00,VWS V14.01,2013-08-22 23:20:00,
2013-08-22 19:25:00,73.0,69.6,29.86,SE,141,0.0,0.0,89,0.00,,,0.00,VWS V14.01,2013-08-22 23:25:00,
2013-08-22 19:30:00,72.7,69.3,29.86,SE,141,0.0,0.0,89,0.00,,,0.00,VWS V14.01,2013-08-22 23:30:00,
2013-08-22 19:35:00,72.5,69.1,29.86,SE,141,0.0,0.0,89,0.00,,,0.00,VWS V14.01,2013-08-22 23:35:00,
2013-08-22 19:41:00,72.2,69.1,29.86,SE,141,0.0,0.0,90,0.00,,,0.00,VWS V14.01,2013-08-22 23:41:00,
2013-08-22 19:46:00,71.8,68.7,29.86,SE,141,0.0,0.0,90,0.00,,,0.00,VWS V14.01,2013-08-22 23:46:00,
2013-08-22 19:51:00,71.5,68.4,29.85,SE,141,0.0,0.0,90,0.00,,,0.00,VWS V14.01,2013-08-22 23:51:00,
2013-08-22 19:56:00,71.3,68.5,29.85,SE,141,0.0,0.0,91,0.00,,,0.00,VWS V14.01,2013-08-22 23:56:00,
2013-08-22 20:01:00,71.0,68.2,29.85,SE,141,0.0,0.0,91,0.00,,,0.00,VWS V14.01,2013-08-23 00:01:00,
2013-08-22 20:06:00,70.7,67.9,29.85,SE,141,0.0,0.0,91,0.00,,,0.00,VWS V14.01,2013-08-23 00:06:00,
2013-08-22 20:11:00,70.4,67.7,29.85,SE,141,0.0,0.0,91,0.00,,,0.00,VWS V14.01,2013-08-23 00:11:00,
2013-08-22 20:16:00,70.2,67.8,29.85,SE,141,0.0,0.0,92,0.00,,,0.00,VWS V14.01,2013-08-23 00:16:00,
2013-08-22 20:21:00,69.9,67.5,29.86,SE,141,0.0,0.0,92,0.00,,,0.00,VWS V14.01,2013-08-23 00:21:00,
2013-08-22 20:27:00,69.7,67.3,29.86,SE,141,0.0,0.0,92,0.00,,,0.00,VWS V14.01,2013-08-23 00:27:00,
2013-08-22 20:32:00,69.4,67.3,29.86,SE,141,0.0,0.0,93,0.00,,,0.00,VWS V14.01,2013-08-23 00:32:00,
2013-08-22 20:37:00,69.2,67.1,29.86,SE,141,0.0,0.0,93,0.00,,,0.00,VWS V14.01,2013-08-23 00:37:00,
2013-08-22 20:42:00,69.0,66.9,29.86,SE,141,0.0,0.0,93,0.00,,,0.00,VWS V14.01,2013-08-23 00:42:00,
2013-08-22 20:47:00,68.8,67.0,29.86,SE,141,0.0,0.0,94,0.00,,,0.00,VWS V14.01,2013-08-23 00:47:00,
2013-08-22 20:52:00,68.5,66.7,29.86,SE,141,0.0,0.0,94,0.00,,,0.00,VWS V14.01,2013-08-23 00:52:00,
2013-08-22 20:57:00,68.3,66.8,29.87,SE,141,0.0,0.0,95,0.00,,,0.00,VWS V14.01,2013-08-23 00:57:00,
2013-08-22 21:02:00,68.2,66.7,29.87,SE,141,0.0,0.0,95,0.00,,,0.00,VWS V14.01,2013-08-23 01:02:00,
2013-08-22 21:08:00,68.0,66.5,29.87,SE,141,0.0,0.0,95,0.00,,,0.00,VWS V14.01,2013-08-23 01:08:00,
2013-08-22 21:13:00,67.9,66.4,29.87,SE,141,0.0,0.0,95,0.00,,,0.00,VWS V14.01,2013-08-23 01:13:00,
2013-08-22 21:18:00,67.7,66.2,29.87,SE,141,0.0,0.0,95,0.00,,,0.00,VWS V14.01,2013-08-23 01:18:00,
2013-08-22 21:23:00,67.7,66.5,29.87,SE,141,0.0,0.0,96,0.00,,,0.00,VWS V14.01,2013-08-23 01:23:00,
2013-08-22 21:28:00,67.6,66.4,29.87,SE,141,0.0,0.0,96,0.00,,,0.00,VWS V14.01,2013-08-23 01:28:00,
2013-08-22 21:33:00,67.5,66.3,29.87,SE,141,0.0,0.0,96,0.00,,,0.00,VWS V14.01,2013-08-23 01:33:00,
2013-08-22 21:38:00,67.3,66.1,29.87,SE,141,0.0,0.0,96,0.00,,,0.00,VWS V14.01,2013-08-23 01:38:00,
2013-08-22 21:43:00,67.1,65.9,29.87,SE,141,0.0,0.0,96,0.00,,,0.00,VWS V14.01,2013-08-23 01:43:00,
2013-08-22 21:48:00,67.0,65.8,29.87,SE,141,0.0,0.0,96,0.00,,,0.00,VWS V14.01,2013-08-23 01:48:00,
2013-08-22 21:54:00,66.8,65.6,29.87,SE,141,0.0,0.0,96,0.00,,,0.00,VWS V14.01,2013-08-23 01:54:00,
2013-08-22 21:59:00,66.8,65.6,29.87,SE,141,0.0,0.0,96,0.00,,,0.00,VWS V14.01,2013-08-23 01:59:00,
2013-08-22 22:04:00,66.7,65.5,29.87,SE,141,0.0,0.0,96,0.00,,,0.00,VWS V14.01,2013-08-23 02:04:00,
2013-08-22 22:09:00,66.7,65.8,29.86,SE,141,0.0,0.0,97,0.00,,,0.00,VWS V14.01,2013-08-23 02:09:00,
2013-08-22 22:14:00,66.7,65.8,29.86,SE,141,0.0,0.0,97,0.00,,,0.00,VWS V14.01,2013-08-23 02:14:00,
2013-08-22 22:19:00,66.6,65.7,29.86,SE,141,0.0,0.0,97,0.00,,,0.00,VWS V14.01,2013-08-23 02:19:00,
2013-08-22 22:24:00,66.5,65.6,29.86,SE,141,0.0,0.0,97,0.00,,,0.00,VWS V14.01,2013-08-23 02:24:00,
2013-08-22 22:29:00,66.5,65.6,29.86,SE,141,0.0,0.0,97,0.00,,,0.00,VWS V14.01,2013-08-23 02:29:00,
2013-08-22 22:35:00,66.4,65.5,29.86,SE,141,0.0,0.0,97,0.00,,,0.00,VWS V14.01,2013-08-23 02:35:00,
2013-08-22 22:40:00,66.3,65.4,29.86,SE,141,0.0,0.0,97,0.00,,,0.00,VWS V14.01,2013-08-23 02:40:00,
2013-08-22 22:45:00,66.3,65.4,29.86,SE,141,0.0,0.0,97,0.00,,,0.00,VWS V14.01,2013-08-23 02:45:00,
2013-08-22 22:50:00,66.3,65.4,29.86,SE,141,0.0,0.0,97,0.00,,,0.00,VWS V14.01,2013-08-23 02:50:00,
2013-08-22 22:55:00,66.3,65.4,29.86,SE,141,0.0,0.0,97,0.00,,,0.00,VWS V14.01,2013-08-23 02:55:00,
2013-08-22 23:00:00,66.3,65.4,29.86,SE,141,0.0,0.0,97,0.00,,,0.00,VWS V14.01,2013-08-23 03:00:00,
2013-08-22 23:05:00,66.3,65.7,29.86,SE,141,0.0,0.0,98,0.00,,,0.00,VWS V14.01,2013-08-23 03:05:00,
2013-08-22 23:10:00,66.3,65.7,29.86,SE,141,0.0,0.0,98,0.00,,,0.00,VWS V14.01,2013-08-23 03:10:00,
2013-08-22 23:16:00,66.2,65.6,29.86,SE,141,0.0,0.0,98,0.00,,,0.00,VWS V14.01,2013-08-23 03:16:00,
2013-08-22 23:21:00,66.2,65.6,29.86,SE,141,0.0,0.0,98,0.00,,,0.00,VWS V14.01,2013-08-23 03:21:00,
2013-08-22 23:26:00,66.1,65.5,29.86,SE,141,0.0,0.0,98,0.00,,,0.00,VWS V14.01,2013-08-23 03:26:00,
2013-08-22 23:31:00,65.9,65.3,29.86,SE,141,0.0,0.0,98,0.00,,,0.00,VWS V14.01,2013-08-23 03:31:00,
2013-08-22 23:36:00,65.9,65.3,29.86,SE,141,0.0,0.0,98,0.00,,,0.00,VWS V14.01,2013-08-23 03:36:00,
2013-08-22 23:41:00,65.8,65.2,29.86,SE,141,0.0,0.0,98,0.00,,,0.00,VWS V14.01,2013-08-23 03:41:00,
2013-08-22 23:46:00,65.9,65.3,29.86,SE,141,0.0,0.0,98,0.00,,,0.00,VWS V14.01,2013-08-23 03:46:00,
2013-08-22 23:51:00,65.9,65.3,29.86,SE,141,0.0,0.0,98,0.00,,,0.00,VWS V14.01,2013-08-23 03:51:00,
2013-08-22 23:56:00,65.9,65.3,29.86,SE,141,0.0,0.0,98,0.00,,,0.00,VWS V14.01,2013-08-23 03:56:00,